sensor_id;sensor_type;location;lat;lon;timestamp;pressure;altitude;pressure_sealevel;temperature;humidity
75555;BME280;66087;53.126;17.960;2023-03-13T00:01:18;100007.54;;;2.65;66.48
75555;BME280;66087;53.126;17.960;2023-03-13T00:03:45;100012.52;;;2.65;66.23
75555;BME280;66087;53.126;17.960;2023-03-13T00:06:13;100002.78;;;2.65;66.39
75555;BME280;66087;53.126;17.960;2023-03-13T00:08:40;99991.90;;;2.65;66.62
75555;BME280;66087;53.126;17.960;2023-03-13T00:11:09;99989.51;;;2.65;66.57
75555;BME280;66087;53.126;17.960;2023-03-13T00:13:37;99999.94;;;2.64;66.80
75555;BME280;66087;53.126;17.960;2023-03-13T00:16:08;99997.02;;;2.64;66.92
75555;BME280;66087;53.126;17.960;2023-03-13T00:18:36;99997.48;;;2.63;66.91
75555;BME280;66087;53.126;17.960;2023-03-13T00:21:06;99997.70;;;2.63;66.71
75555;BME280;66087;53.126;17.960;2023-03-13T00:23:35;99995.63;;;2.62;67.15
75555;BME280;66087;53.126;17.960;2023-03-13T00:26:14;99990.41;;;2.63;67.10
75555;BME280;66087;53.126;17.960;2023-03-13T00:28:43;99983.23;;;2.63;67.23
75555;BME280;66087;53.126;17.960;2023-03-13T00:31:13;99982.60;;;2.62;67.21
75555;BME280;66087;53.126;17.960;2023-03-13T00:33:43;99987.73;;;2.62;67.37
75555;BME280;66087;53.126;17.960;2023-03-13T00:36:14;99982.22;;;2.63;67.20
75555;BME280;66087;53.126;17.960;2023-03-13T00:38:43;99969.33;;;2.64;67.31
75555;BME280;66087;53.126;17.960;2023-03-13T00:41:13;99959.46;;;2.65;67.45
75555;BME280;66087;53.126;17.960;2023-03-13T00:43:42;99960.23;;;2.65;67.79
75555;BME280;66087;53.126;17.960;2023-03-13T00:46:09;99963.14;;;2.64;67.93
75555;BME280;66087;53.126;17.960;2023-03-13T00:48:36;99962.81;;;2.62;68.18
75555;BME280;66087;53.126;17.960;2023-03-13T00:51:04;99956.20;;;2.61;68.63
75555;BME280;66087;53.126;17.960;2023-03-13T00:53:32;99959.96;;;2.61;68.55
75555;BME280;66087;53.126;17.960;2023-03-13T00:56:06;99957.45;;;2.62;68.68
75555;BME280;66087;53.126;17.960;2023-03-13T00:58:36;99948.09;;;2.62;69.33
75555;BME280;66087;53.126;17.960;2023-03-13T01:01:13;99950.77;;;2.62;69.60
75555;BME280;66087;53.126;17.960;2023-03-13T01:03:42;99953.57;;;2.59;69.65
75555;BME280;66087;53.126;17.960;2023-03-13T01:06:12;99949.15;;;2.61;69.79
75555;BME280;66087;53.126;17.960;2023-03-13T01:08:39;99943.31;;;2.61;69.86
75555;BME280;66087;53.126;17.960;2023-03-13T01:11:09;99934.80;;;2.59;69.85
75555;BME280;66087;53.126;17.960;2023-03-13T01:13:37;99939.69;;;2.58;69.61
75555;BME280;66087;53.126;17.960;2023-03-13T01:16:07;99937.86;;;2.59;70.06
75555;BME280;66087;53.126;17.960;2023-03-13T01:18:35;99939.63;;;2.59;69.88
75555;BME280;66087;53.126;17.960;2023-03-13T01:21:04;99937.17;;;2.59;70.02
75555;BME280;66087;53.126;17.960;2023-03-13T01:23:31;99933.65;;;2.59;70.05
75555;BME280;66087;53.126;17.960;2023-03-13T01:25:59;99936.63;;;2.59;70.27
75555;BME280;66087;53.126;17.960;2023-03-13T01:28:26;99938.46;;;2.58;70.39
75555;BME280;66087;53.126;17.960;2023-03-13T01:30:55;99936.23;;;2.56;70.99
75555;BME280;66087;53.126;17.960;2023-03-13T01:33:21;99936.29;;;2.54;70.73
75555;BME280;66087;53.126;17.960;2023-03-13T01:35:48;99928.23;;;2.53;71.81
75555;BME280;66087;53.126;17.960;2023-03-13T01:38:15;99927.82;;;2.50;71.52
75555;BME280;66087;53.126;17.960;2023-03-13T01:40:45;99925.45;;;2.50;72.69
75555;BME280;66087;53.126;17.960;2023-03-13T01:43:21;99929.55;;;2.46;72.95
75555;BME280;66087;53.126;17.960;2023-03-13T01:46:17;99924.63;;;2.44;72.90
75555;BME280;66087;53.126;17.960;2023-03-13T01:49:04;99914.64;;;2.41;73.55
75555;BME280;66087;53.126;17.960;2023-03-13T01:51:41;99901.66;;;2.38;74.20
75555;BME280;66087;53.126;17.960;2023-03-13T01:54:30;99898.42;;;2.35;74.32
75555;BME280;66087;53.126;17.960;2023-03-13T01:57:16;99899.02;;;2.34;74.67
75555;BME280;66087;53.126;17.960;2023-03-13T01:59:55;99901.46;;;2.33;74.82
75555;BME280;66087;53.126;17.960;2023-03-13T02:02:23;99903.52;;;2.31;74.97
75555;BME280;66087;53.126;17.960;2023-03-13T02:04:54;99908.61;;;2.27;74.93
75555;BME280;66087;53.126;17.960;2023-03-13T02:07:30;99913.43;;;2.26;74.84
75555;BME280;66087;53.126;17.960;2023-03-13T02:09:59;99915.34;;;2.25;75.38
75555;BME280;66087;53.126;17.960;2023-03-13T02:12:31;99905.35;;;2.23;75.85
75555;BME280;66087;53.126;17.960;2023-03-13T02:17:40;99896.80;;;2.18;76.84
75555;BME280;66087;53.126;17.960;2023-03-13T02:20:09;99893.80;;;2.15;76.66
75555;BME280;66087;53.126;17.960;2023-03-13T02:22:57;99895.08;;;2.12;77.12
75555;BME280;66087;53.126;17.960;2023-03-13T02:25:46;99896.48;;;2.08;76.96
75555;BME280;66087;53.126;17.960;2023-03-13T02:28:19;99893.04;;;2.07;77.22
75555;BME280;66087;53.126;17.960;2023-03-13T02:30:49;99886.20;;;2.06;77.08
75555;BME280;66087;53.126;17.960;2023-03-13T02:33:17;99875.48;;;2.08;77.82
75555;BME280;66087;53.126;17.960;2023-03-13T02:35:46;99878.01;;;2.06;77.76
75555;BME280;66087;53.126;17.960;2023-03-13T02:38:20;99886.04;;;2.04;77.97
75555;BME280;66087;53.126;17.960;2023-03-13T02:40:50;99888.10;;;2.03;77.80
75555;BME280;66087;53.126;17.960;2023-03-13T02:43:29;99875.30;;;2.03;78.26
75555;BME280;66087;53.126;17.960;2023-03-13T02:46:09;99869.55;;;2.03;78.71
75555;BME280;66087;53.126;17.960;2023-03-13T02:48:43;99868.17;;;2.02;79.44
75555;BME280;66087;53.126;17.960;2023-03-13T02:51:15;99862.48;;;2.01;78.90
75555;BME280;66087;53.126;17.960;2023-03-13T02:53:45;99849.48;;;2.02;78.65
75555;BME280;66087;53.126;17.960;2023-03-13T02:56:16;99846.34;;;2.04;79.00
75555;BME280;66087;53.126;17.960;2023-03-13T02:58:44;99848.72;;;2.03;78.91
75555;BME280;66087;53.126;17.960;2023-03-13T03:01:10;99855.45;;;2.03;79.92
75555;BME280;66087;53.126;17.960;2023-03-13T03:03:39;99862.21;;;2.03;79.24
75555;BME280;66087;53.126;17.960;2023-03-13T03:06:05;99872.39;;;2.04;78.86
75555;BME280;66087;53.126;17.960;2023-03-13T03:08:36;99876.34;;;2.07;78.71
75555;BME280;66087;53.126;17.960;2023-03-13T03:11:07;99871.64;;;2.08;79.29
75555;BME280;66087;53.126;17.960;2023-03-13T03:13:34;99865.86;;;2.09;79.44
75555;BME280;66087;53.126;17.960;2023-03-13T03:16:09;99868.70;;;2.10;79.68
75555;BME280;66087;53.126;17.960;2023-03-13T03:18:37;99877.13;;;2.11;79.71
75555;BME280;66087;53.126;17.960;2023-03-13T03:21:04;99874.30;;;2.11;79.21
75555;BME280;66087;53.126;17.960;2023-03-13T03:23:36;99867.81;;;2.13;79.32
75555;BME280;66087;53.126;17.960;2023-03-13T03:26:04;99872.65;;;2.15;79.17
75555;BME280;66087;53.126;17.960;2023-03-13T03:28:32;99868.76;;;2.18;79.00
75555;BME280;66087;53.126;17.960;2023-03-13T03:31:04;99866.11;;;2.20;79.13
75555;BME280;66087;53.126;17.960;2023-03-13T03:33:31;99858.48;;;2.23;79.67
75555;BME280;66087;53.126;17.960;2023-03-13T03:36:00;99856.23;;;2.24;79.99
75555;BME280;66087;53.126;17.960;2023-03-13T03:38:27;99853.88;;;2.25;80.15
75555;BME280;66087;53.126;17.960;2023-03-13T03:40:54;99849.67;;;2.26;80.13
75555;BME280;66087;53.126;17.960;2023-03-13T03:43:22;99843.02;;;2.27;80.75
75555;BME280;66087;53.126;17.960;2023-03-13T03:45:48;99829.23;;;2.27;80.52
75555;BME280;66087;53.126;17.960;2023-03-13T03:48:16;99821.09;;;2.28;80.12
75555;BME280;66087;53.126;17.960;2023-03-13T03:50:44;99819.27;;;2.30;80.37
75555;BME280;66087;53.126;17.960;2023-03-13T03:53:11;99817.44;;;2.30;81.06
75555;BME280;66087;53.126;17.960;2023-03-13T03:55:39;99816.52;;;2.30;81.13
75555;BME280;66087;53.126;17.960;2023-03-13T03:58:06;99813.69;;;2.30;81.09
75555;BME280;66087;53.126;17.960;2023-03-13T04:00:44;99808.02;;;2.31;81.30
75555;BME280;66087;53.126;17.960;2023-03-13T04:03:11;99807.57;;;2.32;81.73
75555;BME280;66087;53.126;17.960;2023-03-13T04:05:39;99799.70;;;2.25;81.83
75555;BME280;66087;53.126;17.960;2023-03-13T04:08:06;99808.81;;;2.35;82.32
75555;BME280;66087;53.126;17.960;2023-03-13T04:10:34;99801.14;;;2.36;82.08
75555;BME280;66087;53.126;17.960;2023-03-13T04:13:01;99799.40;;;2.38;82.57
75555;BME280;66087;53.126;17.960;2023-03-13T04:15:28;99796.50;;;2.39;82.77
75555;BME280;66087;53.126;17.960;2023-03-13T04:17:55;99795.36;;;2.41;82.44
75555;BME280;66087;53.126;17.960;2023-03-13T04:20:22;99795.22;;;2.43;82.58
75555;BME280;66087;53.126;17.960;2023-03-13T04:22:49;99798.92;;;2.45;82.42
75555;BME280;66087;53.126;17.960;2023-03-13T04:25:18;99792.11;;;2.48;83.60
75555;BME280;66087;53.126;17.960;2023-03-13T04:27:45;99788.91;;;2.50;83.23
75555;BME280;66087;53.126;17.960;2023-03-13T04:30:12;99790.45;;;2.53;82.94
75555;BME280;66087;53.126;17.960;2023-03-13T04:32:55;99791.39;;;2.58;82.91
75555;BME280;66087;53.126;17.960;2023-03-13T04:35:30;99792.72;;;2.62;82.68
75555;BME280;66087;53.126;17.960;2023-03-13T04:38:19;99792.20;;;2.66;83.04
75555;BME280;66087;53.126;17.960;2023-03-13T04:41:06;99789.15;;;2.70;82.57
75555;BME280;66087;53.126;17.960;2023-03-13T04:43:51;99788.11;;;2.75;82.39
75555;BME280;66087;53.126;17.960;2023-03-13T04:46:29;99786.29;;;2.79;82.35
75555;BME280;66087;53.126;17.960;2023-03-13T04:49:16;99791.00;;;2.84;82.59
75555;BME280;66087;53.126;17.960;2023-03-13T04:52:17;99788.27;;;2.92;82.27
75555;BME280;66087;53.126;17.960;2023-03-13T04:55:04;99784.91;;;2.97;82.42
75555;BME280;66087;53.126;17.960;2023-03-13T04:57:45;99780.09;;;3.02;82.31
75555;BME280;66087;53.126;17.960;2023-03-13T05:00:26;99774.73;;;3.05;82.69
75555;BME280;66087;53.126;17.960;2023-03-13T05:03:04;99778.73;;;3.07;82.68
75555;BME280;66087;53.126;17.960;2023-03-13T05:05:46;99775.67;;;3.10;82.56
75555;BME280;66087;53.126;17.960;2023-03-13T05:08:33;99776.30;;;3.13;82.43
75555;BME280;66087;53.126;17.960;2023-03-13T05:11:17;99767.79;;;3.16;82.31
75555;BME280;66087;53.126;17.960;2023-03-13T05:13:58;99766.64;;;3.20;82.64
75555;BME280;66087;53.126;17.960;2023-03-13T05:16:36;99763.19;;;3.22;82.65
75555;BME280;66087;53.126;17.960;2023-03-13T05:19:13;99752.77;;;3.25;82.64
75555;BME280;66087;53.126;17.960;2023-03-13T05:21:59;99748.02;;;3.27;82.75
75555;BME280;66087;53.126;17.960;2023-03-13T05:24:46;99743.80;;;3.32;82.64
75555;BME280;66087;53.126;17.960;2023-03-13T05:27:28;99740.51;;;3.37;82.88
75555;BME280;66087;53.126;17.960;2023-03-13T05:30:12;99734.52;;;3.40;82.65
75555;BME280;66087;53.126;17.960;2023-03-13T05:32:49;99738.07;;;3.48;83.04
75555;BME280;66087;53.126;17.960;2023-03-13T05:35:26;99731.15;;;3.45;83.12
75555;BME280;66087;53.126;17.960;2023-03-13T05:38:06;99737.86;;;3.57;83.36
75555;BME280;66087;53.126;17.960;2023-03-13T05:40:43;99732.16;;;3.59;83.49
75555;BME280;66087;53.126;17.960;2023-03-13T05:43:21;99731.78;;;3.63;83.35
75555;BME280;66087;53.126;17.960;2023-03-13T05:46:05;99733.63;;;3.67;83.24
75555;BME280;66087;53.126;17.960;2023-03-13T05:48:42;99732.17;;;3.72;83.89
75555;BME280;66087;53.126;17.960;2023-03-13T05:51:31;99735.40;;;3.80;84.25
75555;BME280;66087;53.126;17.960;2023-03-13T05:54:13;99736.02;;;3.85;83.89
75555;BME280;66087;53.126;17.960;2023-03-13T05:56:56;99735.70;;;3.91;84.26
75555;BME280;66087;53.126;17.960;2023-03-13T05:59:34;99725.63;;;3.89;84.07
75555;BME280;66087;53.126;17.960;2023-03-13T06:02:21;99741.07;;;4.04;83.46
75555;BME280;66087;53.126;17.960;2023-03-13T06:04:48;99741.38;;;4.09;83.71
75555;BME280;66087;53.126;17.960;2023-03-13T06:07:14;99737.07;;;4.14;83.72
75555;BME280;66087;53.126;17.960;2023-03-13T06:09:41;99733.52;;;4.21;83.50
75555;BME280;66087;53.126;17.960;2023-03-13T06:12:10;99731.04;;;4.28;83.44
75555;BME280;66087;53.126;17.960;2023-03-13T06:14:38;99724.40;;;4.35;83.51
75555;BME280;66087;53.126;17.960;2023-03-13T06:17:20;99717.16;;;4.40;83.72
75555;BME280;66087;53.126;17.960;2023-03-13T06:19:47;99715.39;;;4.44;83.97
75555;BME280;66087;53.126;17.960;2023-03-13T06:22:15;99711.23;;;4.47;83.82
75555;BME280;66087;53.126;17.960;2023-03-13T06:24:42;99709.52;;;4.51;83.78
75555;BME280;66087;53.126;17.960;2023-03-13T06:27:10;99708.65;;;4.56;84.21
75555;BME280;66087;53.126;17.960;2023-03-13T06:29:36;99704.04;;;4.58;84.30
75555;BME280;66087;53.126;17.960;2023-03-13T06:32:03;99700.48;;;4.67;83.95
75555;BME280;66087;53.126;17.960;2023-03-13T06:34:30;99693.65;;;4.76;84.32
75555;BME280;66087;53.126;17.960;2023-03-13T06:36:57;99691.46;;;4.82;83.77
75555;BME280;66087;53.126;17.960;2023-03-13T06:39:24;99680.55;;;4.81;84.07
75555;BME280;66087;53.126;17.960;2023-03-13T06:41:51;99695.88;;;4.94;84.31
75555;BME280;66087;53.126;17.960;2023-03-13T06:44:18;99691.92;;;4.96;84.90
75555;BME280;66087;53.126;17.960;2023-03-13T06:46:44;99694.67;;;5.00;84.45
75555;BME280;66087;53.126;17.960;2023-03-13T06:49:12;99687.87;;;5.07;84.40
75555;BME280;66087;53.126;17.960;2023-03-13T06:51:39;99692.60;;;5.14;84.61
75555;BME280;66087;53.126;17.960;2023-03-13T06:54:05;99681.33;;;5.19;84.25
75555;BME280;66087;53.126;17.960;2023-03-13T06:56:32;99674.16;;;5.30;84.19
75555;BME280;66087;53.126;17.960;2023-03-13T06:58:59;99671.23;;;5.42;83.93
75555;BME280;66087;53.126;17.960;2023-03-13T07:01:26;99664.03;;;5.55;83.51
75555;BME280;66087;53.126;17.960;2023-03-13T07:03:53;99664.30;;;5.68;83.23
75555;BME280;66087;53.126;17.960;2023-03-13T07:06:19;99659.34;;;5.80;82.86
75555;BME280;66087;53.126;17.960;2023-03-13T07:08:46;99654.79;;;5.92;82.94
75555;BME280;66087;53.126;17.960;2023-03-13T07:11:14;99651.69;;;6.02;82.71
75555;BME280;66087;53.126;17.960;2023-03-13T07:13:41;99647.27;;;6.11;82.64
75555;BME280;66087;53.126;17.960;2023-03-13T07:16:11;99647.20;;;6.25;82.36
75555;BME280;66087;53.126;17.960;2023-03-13T07:18:39;99644.17;;;6.39;82.23
75555;BME280;66087;53.126;17.960;2023-03-13T07:21:08;99636.66;;;6.54;81.89
75555;BME280;66087;53.126;17.960;2023-03-13T07:23:36;99625.95;;;6.70;81.61
75555;BME280;66087;53.126;17.960;2023-03-13T07:26:07;99620.97;;;6.84;81.52
75555;BME280;66087;53.126;17.960;2023-03-13T07:28:34;99621.83;;;6.94;81.27
75555;BME280;66087;53.126;17.960;2023-03-13T07:31:05;99611.43;;;7.03;81.21
75555;BME280;66087;53.126;17.960;2023-03-13T07:33:33;99606.98;;;7.11;81.00
75555;BME280;66087;53.126;17.960;2023-03-13T07:35:59;99593.31;;;7.21;80.96
75555;BME280;66087;53.126;17.960;2023-03-13T07:38:26;99592.23;;;7.30;80.76
75555;BME280;66087;53.126;17.960;2023-03-13T07:40:54;99592.54;;;7.39;80.56
75555;BME280;66087;53.126;17.960;2023-03-13T07:43:23;99594.72;;;7.48;80.51
75555;BME280;66087;53.126;17.960;2023-03-13T07:45:53;99589.89;;;7.58;80.32
75555;BME280;66087;53.126;17.960;2023-03-13T07:48:22;99591.21;;;7.67;79.81
75555;BME280;66087;53.126;17.960;2023-03-13T07:50:49;99592.85;;;7.74;79.90
75555;BME280;66087;53.126;17.960;2023-03-13T07:53:16;99592.48;;;7.86;79.83
75555;BME280;66087;53.126;17.960;2023-03-13T07:55:53;99594.45;;;7.97;79.16
75555;BME280;66087;53.126;17.960;2023-03-13T07:58:20;99586.34;;;8.05;79.42
75555;BME280;66087;53.126;17.960;2023-03-13T08:00:47;99558.95;;;7.97;79.03
75555;BME280;66087;53.126;17.960;2023-03-13T08:03:14;99577.58;;;8.17;78.74
75555;BME280;66087;53.126;17.960;2023-03-13T08:05:40;99577.16;;;8.19;78.45
75555;BME280;66087;53.126;17.960;2023-03-13T08:08:07;99571.91;;;8.21;78.36
75555;BME280;66087;53.126;17.960;2023-03-13T08:10:35;99571.49;;;8.24;78.31
75555;BME280;66087;53.126;17.960;2023-03-13T08:13:02;99568.99;;;8.24;78.20
75555;BME280;66087;53.126;17.960;2023-03-13T08:15:29;99564.98;;;8.27;78.30
75555;BME280;66087;53.126;17.960;2023-03-13T08:17:57;99559.77;;;8.31;78.22
75555;BME280;66087;53.126;17.960;2023-03-13T08:20:24;99559.02;;;8.33;77.71
75555;BME280;66087;53.126;17.960;2023-03-13T08:22:54;99556.27;;;8.31;77.64
75555;BME280;66087;53.126;17.960;2023-03-13T08:25:20;99549.63;;;8.31;77.83
75555;BME280;66087;53.126;17.960;2023-03-13T08:27:47;99547.66;;;8.32;77.94
75555;BME280;66087;53.126;17.960;2023-03-13T08:30:14;99542.52;;;8.33;77.73
75555;BME280;66087;53.126;17.960;2023-03-13T08:32:41;99545.04;;;8.32;77.65
75555;BME280;66087;53.126;17.960;2023-03-13T08:35:08;99535.89;;;8.28;77.68
75555;BME280;66087;53.126;17.960;2023-03-13T08:37:34;99539.57;;;8.25;77.93
75555;BME280;66087;53.126;17.960;2023-03-13T08:40:04;99536.41;;;8.21;77.74
75555;BME280;66087;53.126;17.960;2023-03-13T08:42:37;99536.22;;;8.19;77.96
75555;BME280;66087;53.126;17.960;2023-03-13T08:45:05;99535.80;;;8.21;78.02
75555;BME280;66087;53.126;17.960;2023-03-13T08:47:31;99524.39;;;8.23;77.96
75555;BME280;66087;53.126;17.960;2023-03-13T08:49:58;99525.91;;;8.27;78.16
75555;BME280;66087;53.126;17.960;2023-03-13T08:52:26;99527.17;;;8.31;78.20
75555;BME280;66087;53.126;17.960;2023-03-13T08:54:53;99524.11;;;8.37;78.07
75555;BME280;66087;53.126;17.960;2023-03-13T08:57:19;99521.85;;;8.41;78.19
75555;BME280;66087;53.126;17.960;2023-03-13T08:59:46;99517.19;;;8.45;78.13
75555;BME280;66087;53.126;17.960;2023-03-13T09:02:13;99511.10;;;8.47;78.26
75555;BME280;66087;53.126;17.960;2023-03-13T09:04:46;99504.74;;;8.52;78.38
75555;BME280;66087;53.126;17.960;2023-03-13T09:07:16;99498.17;;;8.58;78.32
75555;BME280;66087;53.126;17.960;2023-03-13T09:09:42;99496.54;;;8.62;78.25
75555;BME280;66087;53.126;17.960;2023-03-13T09:12:10;99488.84;;;8.63;78.11
75555;BME280;66087;53.126;17.960;2023-03-13T09:14:37;99474.38;;;8.66;78.28
75555;BME280;66087;53.126;17.960;2023-03-13T09:17:04;99473.70;;;8.71;78.16
75555;BME280;66087;53.126;17.960;2023-03-13T09:19:31;99467.38;;;8.77;78.22
75555;BME280;66087;53.126;17.960;2023-03-13T09:21:58;99457.77;;;8.73;78.06
75555;BME280;66087;53.126;17.960;2023-03-13T09:24:26;99460.94;;;8.86;78.17
75555;BME280;66087;53.126;17.960;2023-03-13T09:26:53;99452.92;;;8.90;78.05
75555;BME280;66087;53.126;17.960;2023-03-13T09:29:20;99457.88;;;8.94;78.05
75555;BME280;66087;53.126;17.960;2023-03-13T09:31:49;99454.05;;;9.01;78.15
75555;BME280;66087;53.126;17.960;2023-03-13T09:34:15;99453.58;;;9.08;78.03
75555;BME280;66087;53.126;17.960;2023-03-13T09:36:42;99441.83;;;9.05;77.98
75555;BME280;66087;53.126;17.960;2023-03-13T09:39:08;99442.02;;;9.05;78.12
75555;BME280;66087;53.126;17.960;2023-03-13T09:41:42;99436.19;;;9.00;78.13
75555;BME280;66087;53.126;17.960;2023-03-13T09:44:26;99435.00;;;9.01;78.24
75555;BME280;66087;53.126;17.960;2023-03-13T09:47:02;99423.11;;;9.06;78.01
75555;BME280;66087;53.126;17.960;2023-03-13T09:49:46;99410.91;;;9.12;77.91
75555;BME280;66087;53.126;17.960;2023-03-13T09:52:24;99403.70;;;9.24;77.74
75555;BME280;66087;53.126;17.960;2023-03-13T09:54:56;99397.64;;;9.36;77.73
75555;BME280;66087;53.126;17.960;2023-03-13T09:57:33;99392.92;;;9.52;77.31
75555;BME280;66087;53.126;17.960;2023-03-13T10:00:16;99391.76;;;9.66;77.06
75555;BME280;66087;53.126;17.960;2023-03-13T10:02:54;99386.46;;;9.82;76.78
75555;BME280;66087;53.126;17.960;2023-03-13T10:05:26;99389.13;;;9.91;76.40
75555;BME280;66087;53.126;17.960;2023-03-13T10:08:14;99388.02;;;9.98;76.03
75555;BME280;66087;53.126;17.960;2023-03-13T10:13:27;99378.90;;;9.96;75.69
75555;BME280;66087;53.126;17.960;2023-03-13T10:16:04;99372.64;;;10.03;75.45
75555;BME280;66087;53.126;17.960;2023-03-13T10:18:35;99366.89;;;10.08;75.60
75555;BME280;66087;53.126;17.960;2023-03-13T10:21:15;99364.76;;;10.07;74.76
75555;BME280;66087;53.126;17.960;2023-03-13T10:26:36;99353.36;;;10.02;75.36
75555;BME280;66087;53.126;17.960;2023-03-13T10:29:18;99350.38;;;10.00;75.27
75555;BME280;66087;53.126;17.960;2023-03-13T10:31:57;99341.31;;;10.00;74.89
75555;BME280;66087;53.126;17.960;2023-03-13T10:34:27;99343.42;;;9.99;75.22
75555;BME280;66087;53.126;17.960;2023-03-13T10:36:57;99338.86;;;10.04;75.13
75555;BME280;66087;53.126;17.960;2023-03-13T10:39:27;99333.04;;;10.06;75.15
75555;BME280;66087;53.126;17.960;2023-03-13T10:42:09;99327.35;;;10.07;74.92
75555;BME280;66087;53.126;17.960;2023-03-13T10:44:36;99318.78;;;10.08;74.53
75555;BME280;66087;53.126;17.960;2023-03-13T10:47:03;99322.80;;;10.09;74.63
75555;BME280;66087;53.126;17.960;2023-03-13T10:49:32;99312.89;;;10.03;74.97
75555;BME280;66087;53.126;17.960;2023-03-13T10:52:03;99310.45;;;9.94;74.84
75555;BME280;66087;53.126;17.960;2023-03-13T10:54:34;99302.28;;;9.92;75.09
75555;BME280;66087;53.126;17.960;2023-03-13T10:57:09;99306.70;;;9.95;74.71
75555;BME280;66087;53.126;17.960;2023-03-13T10:59:49;99299.80;;;9.97;74.75
75555;BME280;66087;53.126;17.960;2023-03-13T11:02:26;99292.44;;;9.97;74.68
75555;BME280;66087;53.126;17.960;2023-03-13T11:04:54;99293.12;;;9.98;74.90
75555;BME280;66087;53.126;17.960;2023-03-13T11:07:31;99296.86;;;9.92;75.26
75555;BME280;66087;53.126;17.960;2023-03-13T11:10:21;99285.52;;;9.85;75.86
75555;BME280;66087;53.126;17.960;2023-03-13T11:12:51;99284.99;;;9.78;76.17
75555;BME280;66087;53.126;17.960;2023-03-13T11:15:28;99280.56;;;9.78;76.64
75555;BME280;66087;53.126;17.960;2023-03-13T11:18:02;99275.73;;;9.88;76.50
75555;BME280;66087;53.126;17.960;2023-03-13T11:20:35;99266.31;;;9.89;76.64
75555;BME280;66087;53.126;17.960;2023-03-13T11:23:28;99262.18;;;9.88;77.03
75555;BME280;66087;53.126;17.960;2023-03-13T11:26:09;99260.70;;;9.85;77.08
75555;BME280;66087;53.126;17.960;2023-03-13T11:28:52;99254.61;;;9.79;77.47
75555;BME280;66087;53.126;17.960;2023-03-13T11:31:40;99243.20;;;9.70;77.83
75555;BME280;66087;53.126;17.960;2023-03-13T11:34:20;99245.45;;;9.67;77.96
75555;BME280;66087;53.126;17.960;2023-03-13T11:37:08;99231.39;;;9.63;78.35
75555;BME280;66087;53.126;17.960;2023-03-13T11:42:48;99206.22;;;9.65;78.57
75555;BME280;66087;53.126;17.960;2023-03-13T11:51:19;99190.16;;;9.57;79.15
75555;BME280;66087;53.126;17.960;2023-03-13T11:54:11;99190.84;;;9.61;79.11
75555;BME280;66087;53.126;17.960;2023-03-13T11:56:51;99185.61;;;9.64;79.14
75555;BME280;66087;53.126;17.960;2023-03-13T11:59:31;99179.23;;;9.55;79.48
75555;BME280;66087;53.126;17.960;2023-03-13T12:02:25;99174.79;;;9.46;79.78
75555;BME280;66087;53.126;17.960;2023-03-13T12:04:58;99169.95;;;9.37;80.56
75555;BME280;66087;53.126;17.960;2023-03-13T12:07:38;99167.47;;;9.25;80.81
75555;BME280;66087;53.126;17.960;2023-03-13T12:10:11;99162.42;;;9.16;81.50
75555;BME280;66087;53.126;17.960;2023-03-13T12:13:06;99174.13;;;9.05;81.69
75555;BME280;66087;53.126;17.960;2023-03-13T12:15:48;99176.76;;;8.98;81.86
75555;BME280;66087;53.126;17.960;2023-03-13T12:18:29;99164.26;;;8.96;81.96
75555;BME280;66087;53.126;17.960;2023-03-13T12:21:27;99160.67;;;8.94;82.52
75555;BME280;66087;53.126;17.960;2023-03-13T12:24:11;99120.72;;;8.68;82.88
75555;BME280;66087;53.126;17.960;2023-03-13T12:26:44;99167.78;;;8.86;83.28
75555;BME280;66087;53.126;17.960;2023-03-13T12:29:32;99154.90;;;8.92;83.34
75555;BME280;66087;53.126;17.960;2023-03-13T12:32:15;99150.81;;;8.92;83.45
75555;BME280;66087;53.126;17.960;2023-03-13T12:37:44;99137.73;;;8.84;84.06
75555;BME280;66087;53.126;17.960;2023-03-13T12:43:17;99131.83;;;8.77;84.71
75555;BME280;66087;53.126;17.960;2023-03-13T12:46:11;99121.94;;;8.74;85.07
75555;BME280;66087;53.126;17.960;2023-03-13T12:49:00;99118.20;;;8.77;85.14
75555;BME280;66087;53.126;17.960;2023-03-13T12:51:44;99113.21;;;8.78;85.26
75555;BME280;66087;53.126;17.960;2023-03-13T12:57:21;99092.98;;;8.84;85.70
75555;BME280;66087;53.126;17.960;2023-03-13T12:59:54;99093.59;;;8.89;85.44
75555;BME280;66087;53.126;17.960;2023-03-13T13:02:27;99083.06;;;8.91;85.47
75555;BME280;66087;53.126;17.960;2023-03-13T13:04:55;99087.96;;;8.88;85.61
75555;BME280;66087;53.126;17.960;2023-03-13T13:07:26;99095.83;;;8.84;85.84
75555;BME280;66087;53.126;17.960;2023-03-13T13:10:15;99097.98;;;8.82;86.25
75555;BME280;66087;53.126;17.960;2023-03-13T13:12:46;99091.98;;;8.84;85.91
75555;BME280;66087;53.126;17.960;2023-03-13T13:15:24;99086.80;;;8.84;86.21
75555;BME280;66087;53.126;17.960;2023-03-13T13:17:59;99079.39;;;8.85;86.29
75555;BME280;66087;53.126;17.960;2023-03-13T13:20:30;99085.25;;;8.93;86.22
75555;BME280;66087;53.126;17.960;2023-03-13T13:28:47;99069.08;;;9.22;85.59
75555;BME280;66087;53.126;17.960;2023-03-13T13:34:01;99068.11;;;9.18;85.88
75555;BME280;66087;53.126;17.960;2023-03-13T13:36:28;99065.16;;;9.21;85.75
75555;BME280;66087;53.126;17.960;2023-03-13T13:38:56;99056.61;;;9.24;85.81
75555;BME280;66087;53.126;17.960;2023-03-13T13:41:32;99056.11;;;9.25;85.86
75555;BME280;66087;53.126;17.960;2023-03-13T13:44:21;99055.52;;;9.27;85.86
75555;BME280;66087;53.126;17.960;2023-03-13T13:46:48;99062.30;;;9.30;85.97
75555;BME280;66087;53.126;17.960;2023-03-13T13:49:19;99052.36;;;9.35;85.97
75555;BME280;66087;53.126;17.960;2023-03-13T13:52:18;99037.84;;;9.43;86.08
75555;BME280;66087;53.126;17.960;2023-03-13T13:54:54;99035.63;;;9.52;86.05
75555;BME280;66087;53.126;17.960;2023-03-13T13:57:25;99047.19;;;9.48;85.99
75555;BME280;66087;53.126;17.960;2023-03-13T14:00:02;99068.90;;;9.41;86.40
75555;BME280;66087;53.126;17.960;2023-03-13T14:05:24;99062.13;;;9.35;86.69
75555;BME280;66087;53.126;17.960;2023-03-13T14:08:03;99052.27;;;9.34;86.88